Etusivu
METAR-TAF:

METAR-TAF

Lentoasemat :

Rivera, Uruguay

Leveyspiiri: 30-53S, Pituuspiiri: 055-32W, korkeus merenpinnasta: 205 m

METAR: puuttuu

Aika: 13:11 (16:11 UTC)

Sääennuste

Tämä raportti tehtiin 4 tuntia ja 41 minuuttia sitten, kello 11.30 UTC
Ennuste voimassa 14. päivästä klo 12 UTC - 15. päivään klo 12 UTC
Tuuli 8 kn etelästä
Näkyvyys 10 km tai enemmän
Hajonneita pilviä 1500 ft:n korkeudessa
Hajonneita pilviä 7000 ft:n korkeudessa
Ajoittain
14. päivästä klo 12 UTC - 14. päivään klo 20 UTC
Näkyvyys: 3000 m
Hajonneita pilviä 800 ft:n korkeudessa
Pilvistä 7000 ft:n korkeudessa
tihkusadetta, utua
Ajoittain
15. päivästä klo 06 UTC - 15. päivään klo 12 UTC
Näkyvyys: 0800 m
Pilvistä 500 ft:n korkeudessa
sumua,

TAF: SURV 141130Z 1412/1512 17008KT 9999 BKN015 BKN070 TX13/1418Z TN04/1511Z TEMPO 1412/1420 3000 DZ BR BKN008 OVC070 TEMPO 1506/1512 0800 FG OVC005

Säähavainnot ja -ennusteet yli 4000 lentoasemalta (METAR- ja TAF-raportit).

Käytössä olevat sääasemat on merkitty karttaan keltaisilla ja punaisilla pisteillä.

Aseta hiiri pisteen päälle nähdäksesi sääaseman nimen.

Klikkaa sitten nähdäksesi säähavainnot ja -ennusteet.

Kartan vaihtaminen: klikkaa mustalla rastilla varustettuja vihreitä pisteitä, niin voit zoomata sisään; viivalla varustettua vihreää pistettä, niin voit zoomata ulos tai vihreitä nuolia, niin pääset viereisille kartoille.


METAR-TAF: